createdAt,value
2023-02-02T00:00:50.782Z,946.73
2023-02-02T00:01:50.796Z,946.80
2023-02-02T00:02:50.819Z,946.82
2023-02-02T00:03:50.966Z,946.73
2023-02-02T00:04:50.762Z,946.72
2023-02-02T00:05:50.726Z,946.68
2023-02-02T00:06:50.713Z,946.65
2023-02-02T00:07:50.703Z,946.70
2023-02-02T00:08:50.703Z,946.72
2023-02-02T00:09:50.700Z,946.64
2023-02-02T00:10:50.710Z,946.61
2023-02-02T00:11:50.651Z,946.67
2023-02-02T00:12:50.653Z,946.68
2023-02-02T00:13:50.624Z,946.66
2023-02-02T00:14:50.651Z,946.76
2023-02-02T00:15:50.704Z,946.75
2023-02-02T00:16:50.607Z,946.64
2023-02-02T00:17:50.588Z,946.64
2023-02-02T00:18:50.589Z,946.66
2023-02-02T00:19:50.611Z,946.76
2023-02-02T00:20:50.546Z,946.72
2023-02-02T00:21:50.568Z,946.82
2023-02-02T00:22:50.541Z,946.80
2023-02-02T00:23:50.515Z,946.84
2023-02-02T00:24:50.521Z,946.71
2023-02-02T00:25:50.514Z,946.74
2023-02-02T00:26:50.571Z,946.62
2023-02-02T00:27:50.501Z,946.70
2023-02-02T00:28:50.477Z,946.73
2023-02-02T00:29:50.473Z,946.66
2023-02-02T00:30:50.484Z,946.82
2023-02-02T00:31:50.514Z,946.80
2023-02-02T00:32:50.420Z,946.95
2023-02-02T00:33:50.410Z,946.88
2023-02-02T00:34:50.401Z,946.83
2023-02-02T00:35:50.396Z,946.71
2023-02-02T00:36:50.407Z,946.79
2023-02-02T00:37:50.368Z,946.94
2023-02-02T00:38:50.386Z,946.84
2023-02-02T00:39:50.343Z,946.86
2023-02-02T00:40:50.337Z,946.93
2023-02-02T00:41:50.307Z,946.85
2023-02-02T00:42:50.373Z,946.89
2023-02-02T00:43:50.296Z,946.88
2023-02-02T00:44:50.311Z,946.97
2023-02-02T00:45:50.306Z,946.93
2023-02-02T00:46:50.267Z,946.81
2023-02-02T00:47:50.301Z,946.76
2023-02-02T00:48:50.255Z,946.82
2023-02-02T00:49:50.225Z,946.83
2023-02-02T00:50:50.229Z,946.91
2023-02-02T00:51:50.233Z,946.98
2023-02-02T00:52:53.798Z,946.89
2023-02-02T00:53:50.185Z,946.90
2023-02-02T00:54:50.213Z,946.84
2023-02-02T00:55:50.160Z,946.88
2023-02-02T00:56:50.179Z,946.93
2023-02-02T00:57:50.138Z,946.81
2023-02-02T00:58:50.136Z,946.97
2023-02-02T00:59:50.127Z,946.89
2023-02-02T01:00:50.172Z,946.98
2023-02-02T01:01:54.674Z,946.91
2023-02-02T01:02:50.098Z,946.95
2023-02-02T01:03:50.072Z,946.98
2023-02-02T01:04:50.096Z,946.96
2023-02-02T01:05:50.052Z,947.12
2023-02-02T01:06:50.036Z,947.02
2023-02-02T01:07:50.028Z,947.05
2023-02-02T01:08:50.040Z,947.08
2023-02-02T01:09:50.003Z,947.09
2023-02-02T01:10:50.016Z,946.99
2023-02-02T01:11:49.987Z,946.94
2023-02-02T01:12:50.088Z,947.07
2023-02-02T01:13:49.961Z,946.96
2023-02-02T01:14:50.003Z,947.02
2023-02-02T01:15:49.946Z,947.01
2023-02-02T01:16:49.986Z,947.05
2023-02-02T01:17:49.918Z,947.08
2023-02-02T01:18:49.906Z,947.04
2023-02-02T01:19:49.894Z,947.09
2023-02-02T01:20:49.908Z,947.04
2023-02-02T01:21:49.878Z,947.07
2023-02-02T01:22:49.866Z,947.10
2023-02-02T01:23:49.862Z,947.02
2023-02-02T01:24:49.837Z,947.23
2023-02-02T01:25:49.842Z,947.04
2023-02-02T01:26:49.857Z,947.08
2023-02-02T01:27:49.797Z,947.08
2023-02-02T01:28:49.808Z,947.01
2023-02-02T01:29:49.774Z,947.07
2023-02-02T01:30:49.850Z,947.19
2023-02-02T01:31:49.772Z,946.99
2023-02-02T01:32:49.751Z,947.10
2023-02-02T01:33:49.741Z,947.19
2023-02-02T01:34:49.723Z,947.01
2023-02-02T01:35:49.711Z,947.04
2023-02-02T01:36:49.696Z,947.02
2023-02-02T01:37:49.730Z,947.01
2023-02-02T01:38:49.743Z,947.11
2023-02-02T01:39:49.664Z,947.12
2023-02-02T01:40:49.666Z,947.03
2023-02-02T01:41:49.661Z,947.16
2023-02-02T01:42:49.649Z,947.07
2023-02-02T01:43:49.662Z,947.17
2023-02-02T01:44:49.611Z,947.10
2023-02-02T01:45:49.655Z,947.09
2023-02-02T01:46:49.587Z,947.13
2023-02-02T01:47:49.596Z,947.05
2023-02-02T01:48:49.567Z,947.12
2023-02-02T01:49:49.545Z,947.11
2023-02-02T01:50:49.547Z,947.12
2023-02-02T01:51:49.518Z,947.13
2023-02-02T01:52:49.825Z,947.12
2023-02-02T01:53:49.528Z,947.11
2023-02-02T01:54:49.517Z,947.13
2023-02-02T01:55:49.487Z,947.24
2023-02-02T01:56:49.481Z,947.13
2023-02-02T01:57:49.478Z,947.13
2023-02-02T01:58:49.452Z,947.19
2023-02-02T01:59:49.456Z,947.22
2023-02-02T02:00:49.430Z,947.16
2023-02-02T02:01:49.438Z,947.25
2023-02-02T02:02:49.432Z,947.18
2023-02-02T02:03:49.393Z,947.14
2023-02-02T02:04:49.411Z,947.23
2023-02-02T02:05:49.458Z,947.15
2023-02-02T02:06:49.361Z,947.18
2023-02-02T02:07:49.403Z,947.15
2023-02-02T02:08:49.388Z,947.24
2023-02-02T02:09:49.387Z,947.26
2023-02-02T02:10:49.350Z,947.15
2023-02-02T02:11:49.314Z,947.24
2023-02-02T02:12:49.339Z,947.23
2023-02-02T02:13:49.343Z,947.32
2023-02-02T02:14:49.269Z,947.28
2023-02-02T02:15:49.252Z,947.24
2023-02-02T02:16:49.345Z,947.32
2023-02-02T02:17:49.254Z,947.24
2023-02-02T02:18:49.226Z,947.31
2023-02-02T02:19:49.227Z,947.25
2023-02-02T02:20:49.205Z,947.30
2023-02-02T02:21:51.717Z,947.36
2023-02-02T02:22:49.178Z,947.32
2023-02-02T02:23:49.163Z,947.34
2023-02-02T02:24:49.174Z,947.36
2023-02-02T02:25:49.159Z,947.38
2023-02-02T02:26:49.152Z,947.28
2023-02-02T02:27:49.115Z,947.26
2023-02-02T02:28:49.101Z,947.36
2023-02-02T02:29:49.105Z,947.30
2023-02-02T02:30:49.178Z,947.47
2023-02-02T02:31:49.186Z,947.42
2023-02-02T02:32:49.066Z,947.42
2023-02-02T02:33:49.053Z,947.28
2023-02-02T02:34:49.074Z,947.25
2023-02-02T02:35:49.028Z,947.39
2023-02-02T02:36:49.022Z,947.23
2023-02-02T02:37:49.064Z,947.26
2023-02-02T02:38:48.993Z,947.35
2023-02-02T02:39:49.055Z,947.31
2023-02-02T02:40:48.980Z,947.34
2023-02-02T02:41:48.956Z,947.36
2023-02-02T02:42:48.954Z,947.42
2023-02-02T02:43:48.941Z,947.38
2023-02-02T02:44:48.943Z,947.35
2023-02-02T02:45:49.019Z,947.41
2023-02-02T02:46:48.959Z,947.44
2023-02-02T02:47:48.890Z,947.36
2023-02-02T02:48:48.891Z,947.36
2023-02-02T02:49:48.867Z,947.43
2023-02-02T02:50:48.895Z,947.30
2023-02-02T02:51:48.866Z,947.33
2023-02-02T02:52:48.846Z,947.50
2023-02-02T02:53:48.836Z,947.42
2023-02-02T02:54:48.843Z,947.42
2023-02-02T02:55:48.804Z,947.32
2023-02-02T02:56:48.790Z,947.32
2023-02-02T02:57:48.808Z,947.29
2023-02-02T15:26:43.401Z,953.28
2023-02-02T15:27:56.258Z,953.34
2023-02-02T15:28:44.383Z,953.37
2023-02-02T15:29:43.323Z,953.34
2023-02-02T15:30:43.327Z,953.38
2023-02-02T15:31:43.430Z,953.39
2023-02-02T15:32:43.289Z,953.41
2023-02-02T15:33:43.291Z,953.38
2023-02-02T15:34:43.265Z,953.42
2023-02-02T15:35:43.286Z,953.45
2023-02-02T15:36:43.290Z,953.46
2023-02-02T15:37:43.239Z,953.48
2023-02-02T15:38:43.254Z,953.44
2023-02-02T15:39:43.220Z,953.41
2023-02-02T15:40:43.199Z,953.46
2023-02-02T15:41:43.210Z,953.49
2023-02-02T15:42:43.196Z,953.50
2023-02-02T15:43:43.186Z,953.46
2023-02-02T15:44:43.174Z,953.50
2023-02-02T15:45:43.220Z,953.60
2023-02-02T15:46:43.173Z,953.59
2023-02-02T15:47:43.143Z,953.61
2023-02-02T15:48:44.096Z,953.66
2023-02-02T15:49:43.114Z,953.65
2023-02-02T15:50:43.105Z,953.65
2023-02-02T15:51:43.098Z,953.69
2023-02-02T15:52:46.032Z,953.72
2023-02-02T15:53:43.082Z,953.69
2023-02-02T15:54:43.057Z,953.78
2023-02-02T15:55:43.037Z,953.81
2023-02-02T15:56:43.037Z,953.83
2023-02-02T15:57:43.022Z,953.85
2023-02-02T15:58:43.023Z,953.85
2023-02-02T15:59:42.990Z,953.89
2023-02-02T16:00:43.053Z,953.82
2023-02-02T16:01:43.065Z,953.90
2023-02-02T16:02:43.004Z,953.96
2023-02-02T16:03:42.966Z,954.00
2023-02-02T16:04:42.980Z,953.94
2023-02-02T16:05:42.942Z,953.95
2023-02-02T16:06:42.912Z,954.08
2023-02-02T16:07:44.119Z,954.08
2023-02-02T16:08:42.914Z,954.12
2023-02-02T16:09:42.909Z,954.17
2023-02-02T16:10:44.669Z,954.13
2023-02-02T16:11:42.865Z,954.17
2023-02-02T16:12:42.851Z,954.19
2023-02-02T16:13:42.847Z,954.18
2023-02-02T16:14:42.846Z,954.27
2023-02-02T16:15:42.839Z,954.27
2023-02-02T16:16:44.184Z,954.27
2023-02-02T16:17:42.807Z,954.28
2023-02-02T16:18:42.773Z,954.28
2023-02-02T16:19:42.781Z,954.33
2023-02-02T16:20:42.771Z,954.41
2023-02-02T16:21:42.749Z,954.36
2023-02-02T16:22:44.536Z,954.44
2023-02-02T16:23:42.772Z,954.47
2023-02-02T16:24:42.732Z,954.51
2023-02-02T16:25:42.711Z,954.53
2023-02-02T16:26:42.753Z,954.58
2023-02-02T16:27:42.714Z,954.61
2023-02-02T16:28:45.021Z,954.61
2023-02-02T16:29:42.674Z,954.61
2023-02-02T16:30:42.695Z,954.58
2023-02-02T16:31:42.697Z,954.57
2023-02-02T16:32:42.630Z,954.64
2023-02-02T16:33:42.651Z,954.71
2023-02-02T16:34:43.980Z,954.75
2023-02-02T16:35:42.595Z,954.72
2023-02-02T16:36:42.614Z,954.66
2023-02-02T16:37:42.573Z,954.67
2023-02-02T16:38:42.555Z,954.74
2023-02-02T16:39:42.553Z,954.85
2023-02-02T16:40:42.546Z,954.84
2023-02-02T16:41:42.622Z,954.87
2023-02-02T16:42:42.521Z,954.90
2023-02-02T16:43:42.512Z,954.91
2023-02-02T16:44:42.488Z,954.93
2023-02-02T16:45:42.501Z,954.89
2023-02-02T16:46:42.518Z,954.92
2023-02-02T16:47:42.480Z,954.97
2023-02-02T16:48:42.538Z,954.95
2023-02-02T16:49:42.465Z,955.02
2023-02-02T16:50:42.433Z,955.01
2023-02-02T16:51:42.434Z,955.00
2023-02-02T16:52:42.403Z,954.97
2023-02-02T16:53:42.419Z,955.07
2023-02-02T16:54:42.443Z,955.01
2023-02-02T16:55:50.397Z,955.05
2023-02-02T16:56:43.379Z,955.05
2023-02-02T16:57:42.377Z,955.07
2023-02-02T16:58:42.354Z,955.03
2023-02-02T16:59:42.351Z,955.10
2023-02-02T17:00:42.315Z,955.18
2023-02-02T17:01:42.488Z,955.09
2023-02-02T17:02:42.368Z,955.16
2023-02-02T17:03:42.281Z,955.17
2023-02-02T17:04:42.277Z,955.14
2023-02-02T17:05:42.298Z,955.17
2023-02-02T17:06:52.343Z,955.19
2023-02-02T17:07:43.244Z,955.20
2023-02-02T17:08:42.307Z,955.16
2023-02-02T17:09:42.254Z,955.17
2023-02-02T17:10:42.209Z,955.25
2023-02-02T17:11:42.255Z,955.25
2023-02-02T17:12:42.220Z,955.23
2023-02-02T17:13:42.181Z,955.28
2023-02-02T17:14:42.160Z,955.29
2023-02-02T17:15:42.153Z,955.33
2023-02-02T17:16:42.206Z,955.29
2023-02-02T17:17:42.127Z,955.25
2023-02-02T17:18:42.199Z,955.31
2023-02-02T17:19:42.130Z,955.36
2023-02-02T17:20:42.107Z,955.34
2023-02-02T17:21:42.090Z,955.35
2023-02-02T17:22:42.075Z,955.38
2023-02-02T17:23:42.059Z,955.36
2023-02-02T17:24:42.041Z,955.34
2023-02-02T17:25:42.132Z,955.42
2023-02-02T17:26:42.069Z,955.44
2023-02-02T17:27:42.017Z,955.47
2023-02-02T17:28:42.008Z,955.43
2023-02-02T17:29:42.020Z,955.40
2023-02-02T17:30:42.127Z,955.46
2023-02-02T17:31:42.017Z,955.45
2023-02-02T17:32:41.993Z,955.49
2023-02-02T17:33:41.972Z,955.51
2023-02-02T17:34:41.960Z,955.55
2023-02-02T17:35:53.727Z,955.61
2023-02-02T17:36:42.932Z,955.57
2023-02-02T17:37:41.918Z,955.56
2023-02-02T17:38:41.887Z,955.60
2023-02-02T17:39:41.885Z,955.58
2023-02-02T17:40:41.887Z,955.64
2023-02-02T17:41:41.862Z,955.62
2023-02-02T17:42:41.845Z,955.64
2023-02-02T17:43:41.858Z,955.65
2023-02-02T17:44:41.818Z,955.73
2023-02-02T17:45:41.883Z,955.68
2023-02-02T17:46:41.876Z,955.69
2023-02-02T17:47:41.805Z,955.72
2023-02-02T17:48:42.640Z,955.79
2023-02-02T17:49:41.817Z,955.79
2023-02-02T17:50:41.770Z,955.80
2023-02-02T17:51:41.742Z,955.73
2023-02-02T17:52:41.735Z,955.78
2023-02-02T17:53:41.753Z,955.80
2023-02-02T17:54:41.726Z,955.82
2023-02-02T17:55:41.702Z,955.85
2023-02-02T17:56:41.686Z,955.95
2023-02-02T17:57:41.700Z,955.98
2023-02-02T17:58:41.695Z,955.98
2023-02-02T17:59:41.692Z,956.06
2023-02-02T18:00:41.666Z,956.05
2023-02-02T18:01:41.798Z,956.04
2023-02-02T18:02:41.691Z,956.07
2023-02-02T18:03:41.628Z,956.00
2023-02-02T18:04:43.148Z,956.07
2023-02-02T18:05:43.561Z,956.07
2023-02-02T18:06:41.593Z,956.05
2023-02-02T18:07:41.572Z,956.09
2023-02-02T18:08:41.560Z,956.02
2023-02-02T18:09:41.547Z,956.05
2023-02-02T18:10:41.538Z,956.07
2023-02-02T18:11:42.630Z,956.05
2023-02-02T18:12:41.521Z,956.08
2023-02-02T18:13:41.506Z,956.01
2023-02-02T18:14:41.507Z,956.02
2023-02-02T18:15:41.592Z,956.01
2023-02-02T18:16:41.488Z,956.00
2023-02-02T18:17:41.461Z,955.96
2023-02-02T18:18:41.460Z,956.00
2023-02-02T18:19:41.464Z,956.01
2023-02-02T18:20:41.424Z,956.00
2023-02-02T18:21:41.434Z,955.97
2023-02-02T18:22:41.496Z,955.98
2023-02-02T18:23:41.406Z,955.95
2023-02-02T18:24:41.384Z,955.95
2023-02-02T18:25:41.391Z,955.94
2023-02-02T18:26:41.417Z,956.01
2023-02-02T18:27:41.354Z,955.99
2023-02-02T18:28:41.349Z,955.95
2023-02-02T18:29:41.331Z,955.97
2023-02-02T18:30:41.496Z,955.95
2023-02-02T18:31:42.500Z,955.95
2023-02-02T18:32:41.405Z,955.94
2023-02-02T18:33:41.289Z,955.93
2023-02-02T18:34:41.256Z,955.92
2023-02-02T18:35:41.273Z,955.91
2023-02-02T18:36:41.271Z,955.88
2023-02-02T18:37:41.233Z,955.95
2023-02-02T18:38:41.254Z,955.94
2023-02-02T18:39:41.214Z,955.97
2023-02-02T18:40:41.224Z,955.96
2023-02-02T18:41:41.204Z,955.96
2023-02-02T18:42:41.182Z,955.96
2023-02-02T18:43:41.163Z,955.97
2023-02-02T18:44:43.080Z,955.98
2023-02-02T18:45:41.159Z,955.97
2023-02-02T18:46:41.177Z,955.99
2023-02-02T18:47:41.651Z,955.97
2023-02-02T18:48:41.124Z,955.95
2023-02-02T18:49:41.154Z,955.94
2023-02-02T18:50:41.129Z,955.98
2023-02-02T18:51:41.084Z,955.92
2023-02-02T18:52:41.077Z,955.95
2023-02-02T18:53:41.056Z,955.94
2023-02-02T18:54:41.066Z,956.00
2023-02-02T18:55:41.123Z,955.95
2023-02-02T18:56:41.033Z,955.95
2023-02-02T18:57:41.006Z,955.95
2023-02-02T18:58:41.003Z,955.95
2023-02-02T18:59:40.999Z,955.97
2023-02-02T19:00:40.998Z,955.99
2023-02-02T19:01:41.063Z,955.97
2023-02-02T19:02:40.952Z,956.00
2023-02-02T19:03:41.004Z,956.00
2023-02-02T19:04:40.931Z,956.04
2023-02-02T19:05:40.989Z,956.08
2023-02-02T19:06:40.939Z,956.01
2023-02-02T19:07:40.905Z,956.06
2023-02-02T19:08:40.926Z,956.07
2023-02-02T19:09:40.897Z,956.09
2023-02-02T19:10:40.882Z,956.10
2023-02-02T19:11:40.873Z,956.08
2023-02-02T19:12:40.873Z,956.10
2023-02-02T19:13:41.126Z,956.05
2023-02-02T19:14:40.824Z,956.05
2023-02-02T19:15:41.171Z,956.11
2023-02-02T19:16:40.800Z,956.15
2023-02-02T19:17:40.806Z,956.11
2023-02-02T19:18:40.783Z,956.11
2023-02-02T19:19:40.776Z,956.16
2023-02-02T19:20:40.764Z,956.19
2023-02-02T19:21:41.388Z,956.20
2023-02-02T19:22:40.779Z,956.12
2023-02-02T19:23:40.717Z,956.10
2023-02-02T19:24:40.731Z,956.18
2023-02-02T19:25:40.713Z,956.17
2023-02-02T19:26:40.755Z,956.09
2023-02-02T19:27:40.701Z,956.11
2023-02-02T19:28:40.662Z,956.15
2023-02-02T19:29:40.661Z,956.15
2023-02-02T19:30:40.667Z,956.14
2023-02-02T19:31:40.683Z,956.16
2023-02-02T19:32:40.644Z,956.10
2023-02-02T19:33:40.643Z,956.10
2023-02-02T19:34:40.608Z,956.13
2023-02-02T19:35:40.581Z,956.05
2023-02-02T19:36:40.590Z,956.04
2023-02-02T19:37:40.578Z,956.05
2023-02-02T19:38:40.568Z,956.03
2023-02-02T19:39:40.535Z,956.03
2023-02-02T19:40:40.542Z,956.09
2023-02-02T19:41:40.549Z,956.08
2023-02-02T19:42:40.527Z,956.11
2023-02-02T19:43:40.490Z,956.13
2023-02-02T19:44:40.514Z,956.13
2023-02-02T19:45:40.487Z,956.11
2023-02-02T19:46:40.510Z,956.14
2023-02-02T19:47:40.460Z,956.12
2023-02-02T19:48:40.464Z,956.17
2023-02-02T19:49:40.463Z,956.16
2023-02-02T19:50:40.423Z,956.18
2023-02-02T19:51:40.411Z,956.18
2023-02-02T19:52:40.395Z,956.19
2023-02-02T19:53:40.414Z,956.20
2023-02-02T19:54:40.375Z,956.20
2023-02-02T19:55:40.370Z,956.15
2023-02-02T19:56:40.356Z,956.13
2023-02-02T19:57:40.371Z,956.18
2023-02-02T19:58:40.361Z,956.16
2023-02-02T19:59:40.324Z,956.20
2023-02-02T20:00:40.343Z,956.21
2023-02-02T20:01:40.329Z,956.26
2023-02-02T20:02:40.386Z,956.25
2023-02-02T20:03:40.292Z,956.19
2023-02-02T20:04:40.263Z,956.19
2023-02-02T20:05:40.258Z,956.24
2023-02-02T20:06:52.888Z,956.22
2023-02-02T20:07:41.223Z,956.21
2023-02-02T20:08:40.248Z,956.19
2023-02-02T20:09:40.217Z,956.24
2023-02-02T20:10:40.200Z,956.26
2023-02-02T20:11:40.182Z,956.19
2023-02-02T20:12:40.184Z,956.23
2023-02-02T20:13:40.195Z,956.19
2023-02-02T20:14:40.174Z,956.20
2023-02-02T20:15:40.194Z,956.21
2023-02-02T20:16:40.180Z,956.19
2023-02-02T20:17:40.126Z,956.17
2023-02-02T20:18:40.145Z,956.16
2023-02-02T20:19:40.118Z,956.20
2023-02-02T20:20:40.106Z,956.19
2023-02-02T20:21:40.073Z,956.18
2023-02-02T20:22:40.085Z,956.20
2023-02-02T20:23:40.065Z,956.23
2023-02-02T20:24:40.044Z,956.28
2023-02-02T20:25:40.061Z,956.31
2023-02-02T20:26:40.059Z,956.25
2023-02-02T20:27:40.036Z,956.31
2023-02-02T20:28:40.001Z,956.32
2023-02-02T20:29:39.987Z,956.34
2023-02-02T20:30:40.033Z,956.36
2023-02-02T20:31:40.042Z,956.40
2023-02-02T20:32:39.975Z,956.40
2023-02-02T20:33:39.946Z,956.44
2023-02-02T20:34:39.961Z,956.45
2023-02-02T20:35:39.956Z,956.45
2023-02-02T20:36:39.905Z,956.45
2023-02-02T20:37:39.912Z,956.39
2023-02-02T20:38:39.887Z,956.44
2023-02-02T20:39:39.871Z,956.34
2023-02-02T20:40:39.859Z,956.33
2023-02-02T20:41:39.849Z,956.33
2023-02-02T20:42:39.864Z,956.37
2023-02-02T20:43:39.852Z,956.39
2023-02-02T20:44:39.835Z,956.34
2023-02-02T20:45:39.907Z,956.36
2023-02-02T20:46:39.812Z,956.39
2023-02-02T20:47:39.782Z,956.40
2023-02-02T20:48:39.781Z,956.44
2023-02-02T20:49:39.805Z,956.46
2023-02-02T20:50:39.753Z,956.44
2023-02-02T20:51:39.748Z,956.48
2023-02-02T20:52:39.774Z,956.51
2023-02-02T20:53:39.709Z,956.51
2023-02-02T20:54:39.745Z,956.57
2023-02-02T20:55:39.697Z,956.48
2023-02-02T20:56:39.692Z,956.47
2023-02-02T20:57:39.692Z,956.48
2023-02-02T20:58:39.671Z,956.55
2023-02-02T20:59:39.657Z,956.49
2023-02-02T21:00:39.670Z,956.50
2023-02-02T21:01:39.631Z,956.49
2023-02-02T21:02:39.709Z,956.45
2023-02-02T21:03:39.607Z,956.48
2023-02-02T21:04:39.630Z,956.50
2023-02-02T21:05:39.586Z,956.46
2023-02-02T21:06:39.589Z,956.48
2023-02-02T21:07:39.582Z,956.43
2023-02-02T21:08:39.712Z,956.47
2023-02-02T21:09:39.602Z,956.43
2023-02-02T21:10:39.532Z,956.47
2023-02-02T21:11:39.541Z,956.48
2023-02-02T21:12:39.530Z,956.43
2023-02-02T21:13:39.504Z,956.45
2023-02-02T21:14:39.485Z,956.50
2023-02-02T21:15:39.508Z,956.47
2023-02-02T21:16:39.558Z,956.47
2023-02-02T21:17:39.453Z,956.47
2023-02-02T21:18:39.466Z,956.43
2023-02-02T21:19:39.436Z,956.48
2023-02-02T21:20:39.434Z,956.48
2023-02-02T21:21:39.496Z,956.44
2023-02-02T21:22:39.413Z,956.47
2023-02-02T21:23:39.385Z,956.44
2023-02-02T21:24:39.493Z,956.49
2023-02-02T21:25:39.391Z,956.45
2023-02-02T21:26:39.492Z,956.48
2023-02-02T21:27:39.362Z,956.44
2023-02-02T21:28:39.327Z,956.43
2023-02-02T21:29:39.314Z,956.41
2023-02-02T21:30:39.427Z,956.39
2023-02-02T21:31:39.456Z,956.37
2023-02-02T21:32:39.313Z,956.36
2023-02-02T21:33:39.276Z,956.37
2023-02-02T21:34:39.297Z,956.34
2023-02-02T21:35:39.260Z,956.36
2023-02-02T21:36:39.253Z,956.39
2023-02-02T21:37:39.261Z,956.37
2023-02-02T21:38:39.225Z,956.39
2023-02-02T21:39:39.234Z,956.39
2023-02-02T21:40:39.217Z,956.39
2023-02-02T21:41:39.194Z,956.39
2023-02-02T21:42:39.191Z,956.37
2023-02-02T21:43:39.192Z,956.38
2023-02-02T21:44:39.163Z,956.42
2023-02-02T21:45:39.298Z,956.34
2023-02-02T21:46:39.239Z,956.42
2023-02-02T21:47:39.113Z,956.40
2023-02-02T21:48:39.119Z,956.41
2023-02-02T21:49:39.107Z,956.43
2023-02-02T21:50:39.118Z,956.36
2023-02-02T21:51:39.089Z,956.35
2023-02-02T21:52:39.078Z,956.38
2023-02-02T21:53:39.055Z,956.35
2023-02-02T21:54:39.057Z,956.31
2023-02-02T21:55:39.064Z,956.38
2023-02-02T21:56:39.017Z,956.32
2023-02-02T21:57:39.005Z,956.34
2023-02-02T21:58:39.019Z,956.33
2023-02-02T21:59:38.997Z,956.32
2023-02-02T22:00:39.040Z,956.29
2023-02-02T22:01:39.014Z,956.33
2023-02-02T22:02:39.213Z,956.37
2023-02-02T22:03:38.959Z,956.39
2023-02-02T22:04:38.955Z,956.36
2023-02-02T22:05:38.922Z,956.42
2023-02-02T22:06:38.929Z,956.36
2023-02-02T22:07:38.898Z,956.39
2023-02-02T22:08:38.923Z,956.36
2023-02-02T22:09:38.883Z,956.36
2023-02-02T22:10:38.894Z,956.36
2023-02-02T22:11:38.857Z,956.34
2023-02-02T22:12:38.841Z,956.32
2023-02-02T22:13:38.877Z,956.32
2023-02-02T22:14:38.822Z,956.32
2023-02-02T22:15:39.162Z,956.33
2023-02-02T22:16:38.798Z,956.33
2023-02-02T22:17:38.804Z,956.30
2023-02-02T22:18:38.779Z,956.34
2023-02-02T22:19:38.765Z,956.33
2023-02-02T22:20:38.781Z,956.29
2023-02-02T22:21:38.754Z,956.22
2023-02-02T22:22:38.750Z,956.30
2023-02-02T22:23:38.733Z,956.31
2023-02-02T22:24:38.709Z,956.34
2023-02-02T22:25:38.696Z,956.32
2023-02-02T22:26:38.687Z,956.37
2023-02-02T22:27:38.711Z,956.41
2023-02-02T22:28:38.663Z,956.32
2023-02-02T22:29:38.642Z,956.33
2023-02-02T22:30:38.789Z,956.34
2023-02-02T22:31:38.784Z,956.29
2023-02-02T22:32:38.616Z,956.30
2023-02-02T22:33:38.667Z,956.32
2023-02-02T22:34:38.630Z,956.30
2023-02-02T22:35:38.607Z,956.26
2023-02-02T22:36:38.602Z,956.30
2023-02-02T22:37:38.568Z,956.29
2023-02-02T22:38:38.568Z,956.21
2023-02-02T22:39:38.546Z,956.24
2023-02-02T22:40:38.577Z,956.23
2023-02-02T22:41:38.538Z,956.20
2023-02-02T22:42:38.510Z,956.20
2023-02-02T22:43:38.496Z,956.21
2023-02-02T22:44:38.488Z,956.19
2023-02-02T22:45:38.471Z,956.20
2023-02-02T22:46:38.553Z,956.17
2023-02-02T22:47:38.461Z,956.12
2023-02-02T22:48:38.440Z,956.09
2023-02-02T22:49:38.430Z,956.06
2023-02-02T22:50:38.432Z,956.06
2023-02-02T22:51:38.424Z,956.03
2023-02-02T22:52:38.390Z,956.03
2023-02-02T22:53:38.404Z,956.08
2023-02-02T22:54:38.381Z,956.08
2023-02-02T22:55:38.364Z,956.08
2023-02-02T22:56:38.371Z,956.06
2023-02-02T22:57:38.340Z,956.10
2023-02-02T22:58:38.332Z,956.10
2023-02-02T22:59:38.339Z,956.08
2023-02-02T23:00:38.329Z,956.11
2023-02-02T23:01:38.320Z,956.04
2023-02-02T23:02:38.369Z,956.05
2023-02-02T23:03:38.406Z,955.99
2023-02-02T23:04:38.284Z,955.93
2023-02-02T23:05:38.272Z,955.90
2023-02-02T23:06:38.240Z,955.85
2023-02-02T23:07:38.235Z,955.82
2023-02-02T23:08:38.243Z,955.79
2023-02-02T23:09:38.210Z,955.81
2023-02-02T23:10:38.231Z,955.82
2023-02-02T23:11:38.198Z,955.85
2023-02-02T23:12:38.199Z,955.82
2023-02-02T23:13:38.166Z,955.84
2023-02-02T23:14:38.204Z,955.89
2023-02-02T23:15:38.151Z,955.84
2023-02-02T23:16:38.131Z,955.79
2023-02-02T23:17:38.119Z,955.81
2023-02-02T23:18:38.101Z,955.76
2023-02-02T23:19:38.118Z,955.75
2023-02-02T23:20:38.090Z,955.77
2023-02-02T23:21:38.079Z,955.73
2023-02-02T23:22:38.063Z,955.78
2023-02-02T23:23:38.073Z,955.77
2023-02-02T23:24:38.041Z,955.81
2023-02-02T23:25:38.033Z,955.85
2023-02-02T23:26:38.025Z,955.82
2023-02-02T23:27:38.066Z,955.84
2023-02-02T23:28:38.046Z,955.82
2023-02-02T23:29:37.985Z,955.85
2023-02-02T23:30:38.097Z,955.79
2023-02-02T23:31:38.053Z,955.81
2023-02-02T23:32:37.947Z,955.81
2023-02-02T23:33:37.963Z,955.76
2023-02-02T23:34:37.997Z,955.80
2023-02-02T23:35:37.926Z,955.78
2023-02-02T23:36:37.903Z,955.80
2023-02-02T23:37:37.916Z,955.82
2023-02-02T23:38:37.902Z,955.76
2023-02-02T23:39:37.878Z,955.78
2023-02-02T23:40:37.884Z,955.74
2023-02-02T23:41:37.851Z,955.70
2023-02-02T23:42:37.853Z,955.64
2023-02-02T23:43:37.843Z,955.63
2023-02-02T23:44:37.844Z,955.61
2023-02-02T23:45:37.811Z,955.63
2023-02-02T23:46:37.831Z,955.59
2023-02-02T23:47:37.795Z,955.61
2023-02-02T23:48:37.769Z,955.64
2023-02-02T23:49:37.775Z,955.64
2023-02-02T23:50:37.747Z,955.61
2023-02-02T23:51:37.769Z,955.61
2023-02-02T23:52:37.754Z,955.57
2023-02-02T23:53:37.720Z,955.57
2023-02-02T23:54:37.703Z,955.59
2023-02-02T23:55:37.703Z,955.58
2023-02-02T23:56:37.685Z,955.63
2023-02-02T23:57:37.757Z,955.66
2023-02-02T23:58:37.669Z,955.67
2023-02-02T23:59:37.749Z,955.63
